Time;durP1;ratioP1;P1;durP2;ratioP2;P2;SDS_P1;SDS_P2;PMS_P1;PMS_P2;Temp;Humidity;BMP_temperature;BMP_pressure;BME280_temperature;BME280_humidity;BME280_pressure;Samples;Min_cycle;Max_cycle;Signal;HPM_P1;HPM_P2
2021/12/16 00:03:46;;;;;;;8.27;5.38;;;;;;;17.78;51.25;103499.97;5004736;28;20053;-58
2021/12/16 00:09:20;;;;;;;10.30;5.95;;;;;;;17.78;51.19;103496.44;4989028;28;20073;-58
2021/12/16 00:31:17;;;;;;;7.07;4.55;;;;;;;17.71;51.28;103504.78;5003665;28;20434;-58
2021/12/16 00:33:56;;;;;;;8.05;5.20;;;;;;;17.69;51.23;103501.34;5007427;28;20140;-58
2021/12/16 00:36:23;;;;;;;6.80;4.68;;;;;;;17.69;50.97;103506.69;5011151;28;20085;-59
2021/12/16 00:38:49;;;;;;;7.03;4.55;;;;;;;17.68;51.18;103507.63;5005506;28;20050;-58
2021/12/16 00:41:16;;;;;;;6.22;4.60;;;;;;;17.67;50.98;103508.59;5008123;28;20390;-58
2021/12/16 00:43:56;;;;;;;6.22;4.40;;;;;;;17.66;51.11;103509.53;5007488;28;20058;-58
2021/12/16 00:54:43;;;;;;;5.95;3.95;;;;;;;17.63;51.03;103507.03;5007993;28;20412;-58
2021/12/16 00:57:13;;;;;;;6.78;4.63;;;;;;;17.63;51.03;103517.75;5014614;28;20054;-58
2021/12/16 00:59:44;;;;;;;7.43;4.70;;;;;;;17.63;51.02;103511.53;5009439;28;21635;-57
2021/12/16 01:02:34;;;;;;;8.45;4.95;;;;;;;17.63;51.13;103506.16;5006745;28;21354;-58
2021/12/16 01:49:15;;;;;;;5.60;3.70;;;;;;;17.53;51.35;103540.69;5009439;28;20062;-59
2021/12/16 01:57:14;;;;;;;5.85;3.75;;;;;;;17.53;51.09;103554.09;5008979;28;20049;-59
2021/12/16 01:59:46;;;;;;;5.22;3.33;;;;;;;17.53;51.44;103562.13;5009279;28;20052;-59
2021/12/16 02:02:46;;;;;;;6.70;3.33;;;;;;;17.52;51.30;103573.78;5009380;28;20134;-59
2021/12/16 02:10:24;;;;;;;5.80;3.65;;;;;;;17.52;50.83;103565.75;5009981;28;20188;-59
2021/12/16 02:13:11;;;;;;;7.78;3.65;;;;;;;17.51;51.14;103564.88;5009801;28;20041;-59
2021/12/16 02:32:40;;;;;;;6.55;3.65;;;;;;;17.46;51.03;103568.78;5009383;28;20534;-59
2021/12/16 02:37:32;;;;;;;6.25;3.53;;;;;;;17.46;51.08;103585.72;5011044;28;20053;-58
2021/12/16 02:40:01;;;;;;;5.82;3.35;;;;;;;17.45;51.16;103580.47;5008305;28;20060;-58
2021/12/16 02:42:38;;;;;;;4.88;3.30;;;;;;;17.44;50.83;103581.38;5009592;28;20041;-59
2021/12/16 02:50:39;;;;;;;6.72;3.10;;;;;;;17.42;51.44;103594.88;5015086;28;20108;-57
2021/12/16 02:53:05;;;;;;;5.88;3.53;;;;;;;17.41;51.40;103594.97;5014961;28;20153;-59
2021/12/16 02:55:32;;;;;;;6.55;3.45;;;;;;;17.40;51.33;103587.88;5009828;28;20045;-58
2021/12/16 02:58:01;;;;;;;6.28;2.92;;;;;;;17.39;51.44;103581.63;5010281;28;20333;-59
2021/12/16 03:00:33;;;;;;;6.43;3.13;;;;;;;17.40;51.30;103582.50;5010527;28;20052;-59
2021/12/16 03:03:00;;;;;;;6.93;2.90;;;;;;;17.40;51.32;103575.31;5009946;28;20054;-58
2021/12/16 03:05:26;;;;;;;5.22;3.28;;;;;;;17.39;51.32;103578.09;5009726;28;20137;-58
2021/12/16 03:07:53;;;;;;;5.63;3.35;;;;;;;17.38;51.34;103581.72;5006743;28;20049;-59
2021/12/16 03:12:59;;;;;;;6.40;3.38;;;;;;;17.36;51.02;103573.75;5008211;28;20084;-59
2021/12/16 03:15:49;;;;;;;5.28;3.63;;;;;;;17.36;51.60;103578.25;5007446;28;20046;-59
2021/12/16 03:21:00;;;;;;;5.03;3.08;;;;;;;17.35;51.66;103576.53;5008885;28;20046;-58
2021/12/16 03:37:14;;;;;;;4.80;3.05;;;;;;;17.31;51.44;103583.00;5008714;28;20053;-58
2021/12/16 03:40:06;;;;;;;4.28;2.90;;;;;;;17.31;51.43;103583.88;5008842;28;20048;-58
2021/12/16 03:42:35;;;;;;;4.25;2.97;;;;;;;17.29;51.75;103575.06;5005948;28;20565;-58
2021/12/16 03:46:25;;;;;;;4.50;3.53;;;;;;;17.28;51.57;103581.34;5006782;28;20349;-58
2021/12/16 03:48:06;;;;;;;5.18;3.28;;;;;;;17.26;51.24;103575.22;5005449;28;20056;-58
2021/12/16 03:50:33;;;;;;;3.83;2.88;;;;;;;17.27;51.73;103572.44;5005501;28;20053;-58
2021/12/16 03:53:01;;;;;;;4.53;3.05;;;;;;;17.27;51.06;103574.25;5008390;28;20053;-58
2021/12/16 03:55:27;;;;;;;3.95;2.80;;;;;;;17.27;51.76;103576.94;5006343;28;20502;-59
2021/12/16 03:57:54;;;;;;;3.83;2.90;;;;;;;17.25;51.28;103571.66;5005610;28;20060;-59
2021/12/16 04:00:27;;;;;;;4.82;2.72;;;;;;;17.26;51.67;103578.75;5001363;28;20134;-59
2021/12/16 04:02:54;;;;;;;;;;;;;;;17.23;51.40;103578.91;5005908;28;20057;-59
2021/12/16 04:05:22;;;;;;;4.05;3.00;;;;;;;17.27;51.64;103577.81;5007660;28;19967;-58
2021/12/16 04:07:49;;;;;;;4.88;3.10;;;;;;;17.24;51.52;103580.63;5007842;28;21614;-58
2021/12/16 04:10:32;;;;;;;3.53;2.70;;;;;;;17.22;51.18;103585.22;5006367;28;20045;-58
2021/12/16 04:13:00;;;;;;;4.45;2.90;;;;;;;17.22;51.16;103581.69;5001031;28;20637;-58
2021/12/16 04:15:27;;;;;;;4.07;2.55;;;;;;;17.21;50.97;103583.50;5004863;28;20145;-58
2021/12/16 04:17:54;;;;;;;4.20;3.08;;;;;;;17.20;51.62;103586.25;5005538;28;20060;-58
2021/12/16 04:20:21;;;;;;;3.63;2.67;;;;;;;17.19;51.13;103582.69;5003476;28;20129;-58
2021/12/16 04:22:47;;;;;;;5.03;3.13;;;;;;;17.19;51.48;103584.53;5003929;28;20050;-59
2021/12/16 04:25:20;;;;;;;4.68;2.67;;;;;;;17.18;51.67;103583.66;5006052;28;20136;-58
2021/12/16 04:27:50;;;;;;;4.15;2.88;;;;;;;17.18;51.14;103590.84;5004705;28;20068;-58
2021/12/16 04:30:18;;;;;;;4.30;2.53;;;;;;;17.17;50.94;103595.34;5001417;28;20442;-59
2021/12/16 04:32:45;;;;;;;4.68;3.08;;;;;;;17.17;50.90;103598.00;5007610;28;20049;-58
2021/12/16 04:35:13;;;;;;;3.95;2.78;;;;;;;17.16;51.08;103592.72;5006447;28;20050;-58
2021/12/16 04:37:39;;;;;;;4.63;2.92;;;;;;;17.16;51.12;103601.63;5003895;28;20626;-58
2021/12/16 04:40:10;;;;;;;4.28;2.90;;;;;;;17.15;51.25;103597.22;5002966;28;20181;-58
2021/12/16 04:42:38;;;;;;;3.75;2.47;;;;;;;17.14;50.86;103608.03;5005621;28;20109;-58
2021/12/16 04:45:08;;;;;;;3.85;2.50;;;;;;;17.12;51.01;103605.41;5002267;28;20430;-58
2021/12/16 04:47:35;;;;;;;4.05;2.60;;;;;;;17.13;51.35;103603.63;5006526;28;20149;-58
2021/12/16 04:50:02;;;;;;;3.72;2.50;;;;;;;17.13;51.43;103606.31;5003729;28;20061;-58
2021/12/16 04:52:29;;;;;;;3.88;2.50;;;;;;;17.13;50.93;103608.97;5008013;28;20100;-58
2021/12/16 04:54:56;;;;;;;2.97;1.95;;;;;;;17.13;51.07;103609.84;5002873;28;20059;-58
2021/12/16 04:57:23;;;;;;;3.20;2.45;;;;;;;17.11;51.24;103606.38;5008204;28;20463;-58
2021/12/16 04:59:49;;;;;;;3.33;2.50;;;;;;;17.11;51.09;103608.19;5003401;28;20048;-58
2021/12/16 05:02:20;;;;;;;4.05;2.33;;;;;;;17.09;51.85;103605.59;5002535;28;20056;-58
2021/12/16 05:04:48;;;;;;;3.75;2.33;;;;;;;17.11;51.20;103600.13;5009434;28;20129;-59
2021/12/16 05:07:16;;;;;;;2.85;2.20;;;;;;;17.09;51.59;103604.72;5008486;28;20130;-58
2021/12/16 05:10:03;;;;;;;3.15;2.42;;;;;;;17.09;51.40;103610.94;5012007;28;20042;-59
2021/12/16 05:12:34;;;;;;;3.08;2.38;;;;;;;17.10;51.64;103612.69;5010860;28;20059;-59
2021/12/16 05:15:05;;;;;;;3.30;2.38;;;;;;;17.09;51.76;103608.28;5004933;28;20064;-58
2021/12/16 05:17:41;;;;;;;3.78;2.60;;;;;;;17.08;51.60;103614.56;5006487;28;20060;-58
2021/12/16 05:20:11;;;;;;;4.25;2.75;;;;;;;17.08;51.84;103621.72;5008326;28;20417;-59
2021/12/16 05:28:13;;;;;;;7.78;3.65;;;;;;;17.14;51.27;103633.00;5005409;28;20050;-58
2021/12/16 05:30:40;;;;;;;4.95;3.25;;;;;;;17.20;51.36;103639.84;5007569;28;20052;-58
2021/12/16 05:33:07;;;;;;;6.90;3.88;;;;;;;17.24;51.45;103638.75;5006238;28;20045;-59
2021/12/16 05:35:35;;;;;;;8.00;4.68;;;;;;;17.27;51.03;103636.78;5004616;28;20053;-58
2021/12/16 05:38:03;;;;;;;8.50;4.30;;;;;;;17.32;51.07;103636.53;5016698;28;20058;-58
2021/12/16 05:40:30;;;;;;;8.35;4.68;;;;;;;17.35;51.48;103632.81;5015139;28;20081;-58
2021/12/16 05:43:01;;;;;;;8.00;4.53;;;;;;;17.38;51.17;103632.69;5010475;28;20049;-59
2021/12/16 05:45:28;;;;;;;9.23;5.00;;;;;;;17.39;51.20;103634.41;5004695;28;20060;-58
2021/12/16 05:47:58;;;;;;;11.85;5.90;;;;;;;17.41;50.60;103645.94;5009827;28;20052;-58
2021/12/16 05:50:26;;;;;;;12.07;6.82;;;;;;;17.41;50.46;103632.53;5006713;28;20045;-59
2021/12/16 05:52:53;;;;;;;10.95;6.05;;;;;;;17.41;51.08;103640.56;5008678;28;20145;-58
2021/12/16 05:55:21;;;;;;;12.85;5.93;;;;;;;17.40;50.79;103644.16;5005789;28;20077;-58
2021/12/16 05:57:49;;;;;;;10.98;5.80;;;;;;;17.40;51.23;103639.66;5005738;28;20173;-58
2021/12/16 06:00:39;;;;;;;12.32;6.25;;;;;;;17.40;50.70;103649.53;5007347;28;20065;-58
2021/12/16 06:03:07;;;;;;;11.95;5.82;;;;;;;17.40;50.90;103644.16;5011428;28;20114;-58
2021/12/16 06:05:34;;;;;;;11.95;6.20;;;;;;;17.39;50.82;103640.63;5006738;28;20104;-58
2021/12/16 06:08:01;;;;;;;12.52;5.75;;;;;;;17.38;50.65;103644.25;5006411;28;20072;-58
2021/12/16 06:12:54;;;;;;;9.65;5.50;;;;;;;17.37;50.77;103655.06;5000797;28;20053;-58
2021/12/16 06:15:38;;;;;;;10.73;6.15;;;;;;;17.34;50.85;103650.72;5003891;28;20061;-59
2021/12/16 06:26:31;;;;;;;9.93;5.70;;;;;;;17.29;50.56;103658.16;5004720;28;20424;-58
2021/12/16 06:28:58;;;;;;;11.48;5.32;;;;;;;17.27;50.76;103665.41;5009756;28;20053;-58
2021/12/16 06:31:25;;;;;;;8.18;4.88;;;;;;;17.26;50.51;103674.38;5003783;28;20132;-58
2021/12/16 06:33:51;;;;;;;8.43;5.13;;;;;;;17.24;51.17;103668.22;5005785;28;20058;-58
2021/12/16 06:36:18;;;;;;;8.00;4.65;;;;;;;17.23;51.02;103663.81;5007026;28;20054;-58
2021/12/16 06:38:45;;;;;;;8.70;4.90;;;;;;;17.22;50.69;103664.78;5007797;28;20042;-58
2021/12/16 06:41:11;;;;;;;9.10;5.07;;;;;;;17.21;51.05;103671.09;5007687;28;20049;-58
2021/12/16 06:43:38;;;;;;;7.82;4.70;;;;;;;17.20;51.09;103667.50;5006707;28;20038;-59
2021/12/16 06:46:09;;;;;;;10.38;5.00;;;;;;;17.18;51.12;103672.09;5004714;28;20042;-58
2021/12/16 06:48:39;;;;;;;9.73;4.95;;;;;;;17.17;50.69;103681.09;5005344;28;20057;-58
2021/12/16 06:51:19;;;;;;;9.30;5.05;;;;;;;17.16;51.20;103682.03;5007183;28;20041;-58
2021/12/16 06:54:00;;;;;;;9.38;4.95;;;;;;;17.15;50.83;103692.84;5009319;28;20129;-59
2021/12/16 06:56:35;;;;;;;7.88;4.82;;;;;;;17.14;50.42;103691.97;5003319;28;20054;-58
2021/12/16 06:59:09;;;;;;;7.30;4.43;;;;;;;17.12;50.83;103696.53;5006038;28;20058;-58
2021/12/16 07:04:07;;;;;;;8.95;5.25;;;;;;;17.10;50.65;103701.09;5003742;28;20132;-58
2021/12/16 07:06:35;;;;;;;9.98;5.50;;;;;;;17.09;51.05;103701.19;5007071;28;20064;-58
2021/12/16 07:09:14;;;;;;;8.73;4.72;;;;;;;17.07;50.79;103711.97;5009363;28;20045;-58
2021/12/16 07:11:48;;;;;;;7.32;4.13;;;;;;;17.07;50.57;103713.78;5005289;28;20060;-57
2021/12/16 07:14:19;;;;;;;7.70;4.55;;;;;;;17.05;51.44;103708.53;5002162;28;20311;-58
2021/12/16 07:16:49;;;;;;;8.57;4.80;;;;;;;17.05;50.88;103710.34;5006020;28;20065;-56
2021/12/16 07:19:16;;;;;;;7.93;4.60;;;;;;;17.05;50.50;103719.25;5006482;28;20520;-56
2021/12/16 07:21:43;;;;;;;11.45;4.65;;;;;;;17.02;50.89;103728.28;5009782;28;20053;-57
2021/12/16 07:24:14;;;;;;;6.80;4.05;;;;;;;17.02;51.46;103739.00;5003172;28;20121;-58
2021/12/16 07:26:41;;;;;;;10.43;4.75;;;;;;;17.02;51.29;103740.81;5005802;28;20530;-57
2021/12/16 07:29:08;;;;;;;10.82;5.00;;;;;;;17.00;51.21;103743.59;5005185;28;20049;-57
2021/12/16 07:31:37;;;;;;;7.45;4.72;;;;;;;17.00;51.19;103742.69;5003560;28;20056;-56
2021/12/16 07:34:04;;;;;;;7.72;4.35;;;;;;;16.99;50.58;103749.88;5003078;28;20121;-56
2021/12/16 07:36:33;;;;;;;7.78;4.85;;;;;;;16.99;50.85;103757.03;5003758;28;20068;-56
2021/12/16 07:39:02;;;;;;;7.55;4.68;;;;;;;16.98;50.50;103763.34;5004200;28;20041;-57
2021/12/16 07:41:32;;;;;;;7.65;4.28;;;;;;;16.97;50.51;103759.81;5006447;28;20129;-57
2021/12/16 07:44:11;;;;;;;8.52;4.78;;;;;;;16.97;50.94;103766.97;5003573;28;20129;-57
2021/12/16 07:47:00;;;;;;;8.13;4.70;;;;;;;16.95;51.09;103774.22;5007437;28;20353;-57
2021/12/16 07:49:30;;;;;;;8.18;5.18;;;;;;;16.94;51.12;103772.50;5002015;28;20507;-58
2021/12/16 07:51:58;;;;;;;7.10;4.50;;;;;;;16.94;50.54;103769.81;4999551;28;20056;-58
2021/12/16 07:54:25;;;;;;;7.65;4.47;;;;;;;16.92;50.97;103777.91;5005106;28;20141;-58
2021/12/16 07:56:55;;;;;;;6.55;4.45;;;;;;;16.93;50.68;103781.47;5004269;28;20345;-58
2021/12/16 07:59:23;;;;;;;8.68;4.80;;;;;;;16.91;50.46;103781.53;5005783;28;20112;-58
2021/12/16 08:01:50;;;;;;;7.63;4.30;;;;;;;16.91;51.23;103781.53;5004841;28;20056;-57
2021/12/16 08:04:20;;;;;;;6.55;4.45;;;;;;;16.91;51.27;103786.03;5007705;28;20116;-57
2021/12/16 08:06:50;;;;;;;7.65;4.22;;;;;;;16.90;50.24;103795.00;5004814;28;20154;-57
2021/12/16 08:09:18;;;;;;;7.05;4.15;;;;;;;16.89;51.27;103798.63;5007948;28;20100;-57
2021/12/16 08:11:47;;;;;;;7.68;4.65;;;;;;;16.89;50.70;103796.81;5001571;28;20386;-57
2021/12/16 08:14:15;;;;;;;7.20;4.10;;;;;;;16.89;50.49;103795.97;5003629;28;20830;-57
2021/12/16 08:16:42;;;;;;;5.40;4.22;;;;;;;16.89;51.30;103799.50;5006401;28;20455;-57
2021/12/16 08:19:09;;;;;;;6.50;4.38;;;;;;;16.87;50.84;103808.53;5004669;28;20125;-57
2021/12/16 08:21:38;;;;;;;6.43;3.88;;;;;;;16.87;50.91;103806.72;5004476;28;20089;-57
2021/12/16 08:24:07;;;;;;;6.30;4.03;;;;;;;16.88;50.79;103816.50;5004599;28;20501;-57
2021/12/16 08:26:37;;;;;;;6.43;4.28;;;;;;;16.86;51.17;103815.72;4999176;28;20129;-58
2021/12/16 08:29:04;;;;;;;8.93;4.10;;;;;;;16.86;50.38;103818.41;5002953;28;20354;-58
2021/12/16 08:31:31;;;;;;;6.32;3.83;;;;;;;16.87;51.04;103824.63;5004236;28;20086;-57
2021/12/16 08:33:58;;;;;;;6.53;4.18;;;;;;;16.87;51.03;103833.53;5006910;28;20078;-58
2021/12/16 08:36:25;;;;;;;6.63;4.03;;;;;;;16.87;51.27;103832.66;5007705;28;20080;-58
2021/12/16 08:38:52;;;;;;;6.45;3.80;;;;;;;16.87;50.57;103830.84;5006222;28;20133;-58
2021/12/16 08:41:24;;;;;;;7.28;4.50;;;;;;;16.88;51.27;103845.97;5005448;28;20121;-57
2021/12/16 08:43:51;;;;;;;6.88;4.28;;;;;;;16.90;50.54;103840.56;5008560;28;20053;-57
2021/12/16 08:46:21;;;;;;;7.20;4.15;;;;;;;16.90;50.63;103844.09;5006608;28;20072;-57
2021/12/16 08:48:48;;;;;;;8.73;4.28;;;;;;;16.91;51.58;103845.81;5003767;28;20046;-57
2021/12/16 08:51:21;;;;;;;8.07;4.55;;;;;;;16.94;50.81;103847.50;5004620;28;20041;-57
2021/12/16 08:53:50;;;;;;;8.43;4.30;;;;;;;16.97;51.19;103855.41;5009696;28;20540;-57
2021/12/16 08:56:18;;;;;;;6.05;3.95;;;;;;;16.97;50.91;103850.03;5002523;28;20389;-57
2021/12/16 08:58:44;;;;;;;6.22;3.85;;;;;;;16.99;50.90;103856.19;5006732;28;20056;-57
2021/12/16 09:01:16;;;;;;;5.45;3.85;;;;;;;17.00;51.19;103864.16;5003250;28;20077;-57
2021/12/16 09:03:43;;;;;;;8.68;4.75;;;;;;;17.01;50.22;103852.50;5003566;28;20062;-57
2021/12/16 09:06:10;;;;;;;5.38;3.47;;;;;;;17.02;50.98;103853.38;5005933;28;20113;-56
2021/12/16 09:08:37;;;;;;;5.88;3.97;;;;;;;17.06;50.55;103856.78;5003309;28;20145;-56
2021/12/16 09:11:07;;;;;;;6.53;4.07;;;;;;;17.07;51.24;103862.03;5004213;28;20335;-57
2021/12/16 09:13:38;;;;;;;6.57;3.80;;;;;;;17.10;51.13;103861.91;5003455;28;20053;-57
2021/12/16 09:16:09;;;;;;;7.50;4.20;;;;;;;17.14;50.82;103862.63;5006104;28;20054;-57
2021/12/16 09:18:41;;;;;;;5.43;3.67;;;;;;;17.17;51.03;103873.22;5008734;28;20049;-57
2021/12/16 09:21:12;;;;;;;6.50;3.83;;;;;;;17.21;50.91;103877.47;5003710;28;20045;-57
2021/12/16 09:23:41;;;;;;;7.45;3.67;;;;;;;17.25;51.12;103881.75;5005893;28;20045;-57
2021/12/16 09:26:08;;;;;;;5.68;3.35;;;;;;;17.28;50.96;103882.44;5003917;28;20176;-57
2021/12/16 09:28:35;;;;;;;8.23;4.70;;;;;;;17.33;50.33;103868.84;4996763;28;20057;-57
2021/12/16 09:31:04;;;;;;;6.15;3.83;;;;;;;17.38;50.47;103874.84;4995027;28;20345;-57
2021/12/16 09:33:31;;;;;;;7.30;4.53;;;;;;;17.42;50.63;103875.56;5000511;28;20053;-58
2021/12/16 09:36:00;;;;;;;6.80;3.67;;;;;;;17.47;50.24;103889.59;4997223;28;20441;-57
2021/12/16 09:38:28;;;;;;;5.53;3.15;;;;;;;17.52;50.51;103882.19;4996195;28;20057;-57
2021/12/16 09:40:56;;;;;;;5.95;3.97;;;;;;;17.58;50.59;103878.34;4997653;28;20050;-57
2021/12/16 09:43:29;;;;;;;6.40;4.03;;;;;;;17.64;50.71;103884.25;4999196;28;20433;-58
2021/12/16 09:46:02;;;;;;;7.57;4.10;;;;;;;17.69;50.60;103881.38;4994838;28;20053;-57
2021/12/16 09:48:31;;;;;;;6.00;3.42;;;;;;;17.75;50.39;103883.75;4996235;28;20152;-58
2021/12/16 09:51:04;;;;;;;5.93;3.90;;;;;;;17.81;50.41;103879.88;4999954;28;20050;-58
2021/12/16 09:53:32;;;;;;;7.70;4.50;;;;;;;17.86;50.44;103870.69;5000247;28;20073;-58
2021/12/16 09:56:00;;;;;;;6.88;4.22;;;;;;;17.91;50.14;103884.72;5001579;28;20368;-58
2021/12/16 09:58:32;;;;;;;7.40;4.35;;;;;;;17.96;50.29;103863.00;5000960;28;20171;-58
2021/12/16 10:01:01;;;;;;;6.90;3.97;;;;;;;18.01;50.24;103866.34;4999479;28;20111;-58
2021/12/16 10:03:28;;;;;;;8.13;4.97;;;;;;;18.06;49.99;103869.66;5006305;28;20141;-59
2021/12/16 10:05:55;;;;;;;8.82;4.47;;;;;;;18.10;50.07;103870.34;4999802;28;20056;-58
2021/12/16 10:08:22;;;;;;;7.70;5.00;;;;;;;18.14;50.02;103880.84;5007502;28;20059;-59
2021/12/16 10:10:48;;;;;;;8.00;5.13;;;;;;;18.19;49.67;103880.59;5002085;28;20038;-59
2021/12/16 10:13:22;;;;;;;9.93;5.72;;;;;;;18.23;49.92;103882.19;5002249;28;20050;-59
2021/12/16 10:18:36;;;;;;;8.32;5.22;;;;;;;18.31;49.57;103889.84;5005018;28;20058;-59
2021/12/16 10:21:07;;;;;;;7.28;4.82;;;;;;;18.34;49.37;103881.63;5001711;28;20048;-59
2021/12/16 10:23:38;;;;;;;10.05;5.78;;;;;;;18.37;49.89;103894.84;5003678;28;20115;-59
2021/12/16 10:26:15;;;;;;;10.57;5.55;;;;;;;18.39;49.74;103899.22;5002692;28;20072;-59
2021/12/16 10:28:48;;;;;;;8.80;5.25;;;;;;;18.41;49.58;103891.97;5005431;28;20069;-59
2021/12/16 10:31:31;;;;;;;9.55;6.03;;;;;;;18.45;49.45;103895.31;5007473;28;20444;-60
2021/12/16 10:34:01;;;;;;;9.50;5.78;;;;;;;18.47;49.21;103890.75;5007536;28;20053;-59
2021/12/16 10:36:37;;;;;;;10.90;6.10;;;;;;;18.48;49.43;103893.34;5010478;28;20052;-61
2021/12/16 10:39:22;;;;;;;7.05;5.03;;;;;;;18.50;49.26;103902.19;5010654;28;20077;-59
2021/12/16 10:41:53;;;;;;;9.30;5.60;;;;;;;18.54;49.48;103902.03;5002248;28;20653;-59
2021/12/16 10:44:23;;;;;;;9.93;6.30;;;;;;;18.55;49.23;103898.41;4999304;28;20070;-59
2021/12/16 10:47:04;;;;;;;9.82;6.72;;;;;;;18.56;49.32;103895.63;4999681;28;20076;-59
2021/12/16 10:49:37;;;;;;;10.10;6.00;;;;;;;18.57;49.46;103897.34;4998432;28;20065;-59
2021/12/16 10:52:08;;;;;;;10.48;6.80;;;;;;;18.58;49.33;103899.09;4999328;28;20054;-60
2021/12/16 10:54:38;;;;;;;10.60;6.43;;;;;;;18.61;49.31;103895.38;5001228;28;20389;-59
2021/12/16 10:57:10;;;;;;;11.88;6.85;;;;;;;18.61;49.51;103893.53;4998537;28;20850;-59
2021/12/16 10:59:40;;;;;;;12.05;7.40;;;;;;;18.64;49.51;103892.53;5002216;28;20133;-59
2021/12/16 11:02:25;;;;;;;11.90;7.60;;;;;;;18.64;49.35;103892.53;4998789;28;20052;-59
2021/12/16 11:04:54;;;;;;;11.90;7.03;;;;;;;18.66;49.36;103896.00;4998354;28;20056;-58
2021/12/16 11:07:29;;;;;;;13.55;8.05;;;;;;;18.66;49.24;103899.56;5001077;28;20046;-59
2021/12/16 11:10:11;;;;;;;10.93;6.72;;;;;;;18.68;49.13;103892.25;4999305;28;20056;-58
2021/12/16 11:12:57;;;;;;;11.95;7.50;;;;;;;18.69;49.08;103890.44;5000629;28;20116;-59
2021/12/16 11:15:29;;;;;;;10.00;6.32;;;;;;;18.72;49.44;103895.69;4999902;28;20057;-58
2021/12/16 11:18:13;;;;;;;12.70;7.55;;;;;;;18.72;49.21;103882.25;4999028;28;20046;-58
2021/12/16 11:20:45;;;;;;;;;;;;;;;18.73;49.40;103883.97;4998197;28;20430;-59
2021/12/16 11:23:18;;;;;;;11.63;7.38;;;;;;;18.76;49.02;103886.50;5000787;28;20048;-58
2021/12/16 11:25:46;;;;;;;14.48;8.32;;;;;;;18.77;49.08;103888.22;4998106;28;20064;-59
2021/12/16 11:28:23;;;;;;;11.80;7.22;;;;;;;18.77;49.01;103890.91;4997395;28;20057;-58
2021/12/16 11:30:52;;;;;;;11.60;7.68;;;;;;;18.79;49.35;103888.16;5000146;28;20038;-59
2021/12/16 11:33:28;;;;;;;12.35;7.45;;;;;;;18.80;49.62;103893.44;4997340;28;20090;-59
2021/12/16 11:36:06;;;;;;;11.95;7.88;;;;;;;18.81;49.54;103889.81;4999526;28;20160;-58
2021/12/16 11:38:47;;;;;;;12.20;7.60;;;;;;;18.82;49.05;103885.31;4999489;28;20338;-59
2021/12/16 11:41:17;;;;;;;11.00;7.43;;;;;;;18.83;48.81;103887.06;4997419;28;20142;-59
2021/12/16 11:43:43;;;;;;;16.00;8.23;;;;;;;18.85;49.01;103890.50;5004791;28;20432;-59
2021/12/16 11:46:41;;;;;;;13.63;8.38;;;;;;;18.85;49.14;103885.13;5007653;28;20160;-58
2021/12/16 11:49:23;;;;;;;14.95;8.43;;;;;;;18.87;48.83;103883.25;4999031;28;20046;-58
2021/12/16 11:51:52;;;;;;;11.50;8.30;;;;;;;18.89;49.08;103886.69;5004983;28;20132;-58
2021/12/16 11:54:21;;;;;;;11.80;7.82;;;;;;;18.90;49.03;103883.94;5006176;28;20344;-59
2021/12/16 11:57:00;;;;;;;11.43;7.47;;;;;;;18.92;49.19;103889.22;5001224;28;20836;-60
2021/12/16 11:59:43;;;;;;;12.88;7.88;;;;;;;18.94;49.40;103879.25;4998749;28;20059;-59
2021/12/16 12:02:27;;;;;;;12.57;7.97;;;;;;;18.95;49.01;103873.78;4998581;28;20053;-59
2021/12/16 12:05:17;;;;;;;11.20;7.00;;;;;;;18.97;48.82;103871.91;5008439;28;20077;-59
2021/12/16 12:07:51;;;;;;;13.55;7.80;;;;;;;18.99;49.57;103871.81;5001920;28;20176;-59
2021/12/16 12:10:38;;;;;;;13.35;8.25;;;;;;;19.01;48.83;103877.09;4998226;28;20042;-59
2021/12/16 12:13:07;;;;;;;16.33;10.00;;;;;;;19.03;49.47;103880.56;4999227;28;20156;-59
2021/12/16 12:15:50;;;;;;;13.77;8.73;;;;;;;19.04;49.23;103879.59;5000597;28;20053;-60
2021/12/16 12:18:49;;;;;;;15.53;9.47;;;;;;;19.05;49.46;103882.19;5002071;28;20053;-58
2021/12/16 12:21:23;;;;;;;16.13;9.88;;;;;;;19.05;49.33;103879.50;5005679;28;20053;-59
2021/12/16 12:23:54;;;;;;;15.85;10.43;;;;;;;19.07;49.33;103874.06;5005959;28;20063;-59
2021/12/16 12:26:23;;;;;;;18.05;10.20;;;;;;;19.07;48.81;103874.94;5005981;28;20055;-59
2021/12/16 12:28:57;;;;;;;15.75;9.73;;;;;;;19.08;49.16;103875.78;5002495;28;20053;-58
2021/12/16 12:31:26;;;;;;;16.00;9.73;;;;;;;19.09;48.87;103878.38;5003072;28;20041;-59
2021/12/16 12:33:54;;;;;;;17.92;11.18;;;;;;;19.11;49.26;103875.63;5003737;28;20058;-59
2021/12/16 12:36:22;;;;;;;19.00;11.55;;;;;;;19.12;49.36;103878.22;5008619;28;20057;-59
2021/12/16 12:38:50;;;;;;;18.73;11.13;;;;;;;19.14;48.57;103880.84;5010588;28;20645;-59
2021/12/16 12:41:18;;;;;;;21.83;10.82;;;;;;;19.15;49.05;103878.03;5006576;28;20145;-59
2021/12/16 12:43:45;;;;;;;18.75;11.27;;;;;;;19.16;49.30;103882.47;5005344;28;20262;-59
2021/12/16 12:46:18;;;;;;;22.25;11.90;;;;;;;19.17;48.99;103872.56;5005074;28;20053;-59
2021/12/16 12:48:45;;;;;;;21.45;12.32;;;;;;;19.18;48.97;103875.19;4997717;28;20589;-59
2021/12/16 12:51:11;;;;;;;21.48;12.82;;;;;;;19.18;49.06;103877.88;4998575;28;20128;-59
2021/12/16 12:53:51;;;;;;;21.85;12.70;;;;;;;19.18;49.00;103872.50;4998996;28;20080;-59
2021/12/16 12:56:22;;;;;;;21.83;11.80;;;;;;;19.19;48.67;103874.22;4998699;28;20058;-59
2021/12/16 12:58:59;;;;;;;20.52;11.98;;;;;;;19.20;49.04;103870.56;5001108;28;20055;-59
2021/12/16 13:01:44;;;;;;;20.95;12.38;;;;;;;19.22;48.84;103867.81;4994131;28;20050;-59
2021/12/16 13:04:22;;;;;;;19.15;12.23;;;;;;;19.22;49.16;103871.38;4997983;28;20107;-59
2021/12/16 13:06:53;;;;;;;22.83;13.60;;;;;;;19.23;49.34;103870.41;4997936;28;20487;-59
2021/12/16 13:09:33;;;;;;;22.00;12.23;;;;;;;19.24;48.84;103869.44;4996348;28;20054;-59
2021/12/16 13:12:04;;;;;;;19.52;12.02;;;;;;;19.26;49.05;103882.81;4994587;28;20050;-59
2021/12/16 13:14:49;;;;;;;23.00;12.23;;;;;;;19.27;49.07;103875.63;4991677;28;20125;-59
2021/12/16 13:26:39;;;;;;;22.30;12.90;;;;;;;19.31;48.52;103883.41;4999796;28;20151;-59
2021/12/16 13:29:20;;;;;;;23.10;13.43;;;;;;;19.32;49.15;103892.34;5004120;28;20128;-59
2021/12/16 13:34:59;;;;;;;20.88;12.05;;;;;;;19.33;48.78;103891.38;5008965;28;20053;-59
2021/12/16 13:37:33;;;;;;;21.27;11.88;;;;;;;19.34;49.08;103898.53;5007042;28;20056;-59
2021/12/16 13:40:02;;;;;;;;;;;;;;;19.33;49.09;103899.44;5012057;28;20310;-59
2021/12/16 13:42:56;;;;;;;21.17;12.40;;;;;;;19.34;48.86;103899.38;5012102;28;20273;-59
2021/12/16 13:45:35;;;;;;;22.10;12.30;;;;;;;19.35;49.17;103897.56;5007827;28;20075;-60
2021/12/16 14:02:28;;;;;;;22.73;12.52;;;;;;;19.27;48.05;103907.88;5001286;28;20415;-59
2021/12/16 14:05:16;;;;;;;18.27;11.30;;;;;;;19.27;48.92;103906.06;5000158;28;20064;-57
2021/12/16 14:07:55;;;;;;;21.98;12.63;;;;;;;19.25;48.43;103902.56;5000389;28;20137;-59
2021/12/16 14:10:44;;;;;;;22.20;12.77;;;;;;;19.24;48.52;103903.53;5001314;28;20135;-60
2021/12/16 14:23:02;;;;;;;25.85;13.65;;;;;;;19.18;49.07;103907.47;5000653;28;20053;-59
2021/12/16 14:39:51;;;;;;;20.02;10.95;;;;;;;19.03;49.39;103910.13;4996018;28;20053;-59
2021/12/16 14:48:05;;;;;;;22.48;12.32;;;;;;;18.97;48.54;103922.06;5000399;28;20473;-59
2021/12/16 14:50:46;;;;;;;20.80;12.35;;;;;;;18.94;48.86;103922.28;4998531;28;20105;-58
2021/12/16 14:53:33;;;;;;;22.35;12.60;;;;;;;18.92;49.31;103929.53;4996940;28;20073;-59
2021/12/16 14:56:06;;;;;;;19.73;11.50;;;;;;;18.91;48.75;103919.75;5000249;28;20062;-59
2021/12/16 14:58:34;;;;;;;21.63;12.05;;;;;;;18.89;48.83;103927.00;5009609;28;20111;-58
2021/12/16 15:01:17;;;;;;;22.95;12.45;;;;;;;18.87;49.32;103927.09;5008308;28;20064;-60
2021/12/16 15:03:46;;;;;;;19.80;11.85;;;;;;;18.85;48.86;103928.13;5008522;28;20431;-58
2021/12/16 15:06:24;;;;;;;20.60;11.98;;;;;;;18.86;49.35;103937.94;5008941;28;20049;-58
2021/12/16 15:09:04;;;;;;;20.65;12.35;;;;;;;18.85;49.61;103939.75;5008407;28;20491;-57
2021/12/16 15:11:44;;;;;;;22.60;12.18;;;;;;;18.88;49.58;103933.34;5007422;28;20446;-58
2021/12/16 15:17:23;;;;;;;21.10;11.93;;;;;;;19.00;49.40;103929.97;5007450;28;20132;-58